LiveATC.Net - Listen to live air traffic control over the Internet!


ICAO: KCFD  IATA: CFD   Airport: Coulter Field Airport
City: Bryan   State/Province: Texas
Country: United States   Continent: North America
KCFD METAR Weather: KCFD 170335Z AUTO 00000KT 10SM CLR 10/07 A3029 RMK AO2 T01000065
KCFD Flight Activity (FlightAware)
KCFD Airport Info   (AirNav) (iFlightPlanner)
KCFD VFR Sectional Chart   (iFlightPlanner) 
KCFD IFR Low Chart   (iFlightPlanner) 

KCFD CTAF/App
Feed Status: UP   Listeners: 0
Listen in your browser - HTML5 player (in browser, HTML5)
Listen in your browser - requires Flash (in browser, requires Flash)
Click here to listen with your own player (launches your MP3 player)
KCFD CTAF/App Audio Archives
FacilityFrequency
Bryan CTAF/UNICOM123.000
Houston Approach/Departure134.300

NOTICE

Unauthorized use prohibited. See LiveATC.net Terms of Service


Find LiveATC Audio Streams


Airport/ARTCC Code

Frequency Search
(e.g., 124.400, 128.75)
Site-wide search
 


Browse LiveATC Feeds
Top 50 LiveATC Feeds
Bad Weather Areas

LiveATC FAQ
Offer a LiveATC Feed
Contact LiveATC.net
Press Inquiries

LiveATC on iPhone
LiveATC on Android

Windows Phone
Windows 8/10

LiveATC Mobile
(Mobile browser)

ATC Audio Archives
Interesting Recordings

LiveATC Forums


Home Page
About LiveATC.net
Make a Donation
Terms of Use
Privacy Policy

Canadian Air Freqs

AIRMETs/SIGMETs

FAA Airport Status
Nat'l Airspace Status
Arrival Demand Charts


Server Software By:
Icecast.org
Liquidsoap